Gobernador Costa, Argentina
Current Conditions -  °F | °C
As of 5:00 AM on Sunday 26 Oct 2014 (Local Time) from SCAP Reporting Station
Clear Clear  
Wind Chill: 39°   Ceiling: Unl
Heat Index: 39°   Visibility: NA
Dew Point: 36°   Wind: 2mph
Humidity: 87%   Direction: NA
Pressure: 29.97"   Gusts: NA
Location:  44.07°S, 70.58°W
Report Text: SCAP 260800Z AUTO VRB02KT //// // NSC 04/02 Q1015
Loading
Personal Weather Stations






























Interactive Weather Map
Tropical Storm Tracking
New forecast layout! Learn more

10-Day Weather Forecast

Advertisements
Track Severe Weather on mobile